sensor_id;sensor_type;location;lat;lon;timestamp;P1;durP1;ratioP1;P2;durP2;ratioP2
20623;SDS011;10471;42.736;23.346;2023-12-28T00:02:10;88.97;;;46.93;;
20623;SDS011;10471;42.736;23.346;2023-12-28T00:04:35;91.20;;;47.87;;
20623;SDS011;10471;42.736;23.346;2023-12-28T00:07:02;101.07;;;49.73;;
20623;SDS011;10471;42.736;23.346;2023-12-28T00:09:27;127.50;;;61.87;;
20623;SDS011;10471;42.736;23.346;2023-12-28T00:11:53;95.00;;;50.70;;
20623;SDS011;10471;42.736;23.346;2023-12-28T00:14:18;101.83;;;48.33;;
20623;SDS011;10471;42.736;23.346;2023-12-28T00:16:43;104.80;;;52.03;;
20623;SDS011;10471;42.736;23.346;2023-12-28T00:19:09;100.20;;;52.47;;
20623;SDS011;10471;42.736;23.346;2023-12-28T00:21:34;168.40;;;85.70;;
20623;SDS011;10471;42.736;23.346;2023-12-28T00:24:00;114.20;;;56.03;;
20623;SDS011;10471;42.736;23.346;2023-12-28T00:26:25;106.43;;;52.63;;
20623;SDS011;10471;42.736;23.346;2023-12-28T00:28:50;112.20;;;51.50;;
20623;SDS011;10471;42.736;23.346;2023-12-28T00:31:16;98.87;;;48.83;;
20623;SDS011;10471;42.736;23.346;2023-12-28T00:33:41;94.20;;;46.77;;
20623;SDS011;10471;42.736;23.346;2023-12-28T00:36:07;94.37;;;47.53;;
20623;SDS011;10471;42.736;23.346;2023-12-28T00:38:32;94.13;;;47.00;;
20623;SDS011;10471;42.736;23.346;2023-12-28T00:40:58;91.33;;;46.83;;
20623;SDS011;10471;42.736;23.346;2023-12-28T00:43:23;86.03;;;45.27;;
20623;SDS011;10471;42.736;23.346;2023-12-28T00:45:48;85.57;;;43.73;;
20623;SDS011;10471;42.736;23.346;2023-12-28T00:48:14;87.63;;;43.87;;
20623;SDS011;10471;42.736;23.346;2023-12-28T00:50:39;115.07;;;61.97;;
20623;SDS011;10471;42.736;23.346;2023-12-28T00:53:05;94.53;;;50.13;;
20623;SDS011;10471;42.736;23.346;2023-12-28T00:55:30;83.03;;;44.43;;
20623;SDS011;10471;42.736;23.346;2023-12-28T00:57:56;84.33;;;43.27;;
20623;SDS011;10471;42.736;23.346;2023-12-28T01:00:21;78.77;;;44.17;;
20623;SDS011;10471;42.736;23.346;2023-12-28T01:02:47;95.37;;;51.60;;
20623;SDS011;10471;42.736;23.346;2023-12-28T01:05:12;95.30;;;48.30;;
20623;SDS011;10471;42.736;23.346;2023-12-28T01:07:38;89.87;;;47.73;;
20623;SDS011;10471;42.736;23.346;2023-12-28T01:10:04;92.67;;;47.37;;
20623;SDS011;10471;42.736;23.346;2023-12-28T01:12:30;85.93;;;46.60;;
20623;SDS011;10471;42.736;23.346;2023-12-28T01:14:55;86.50;;;44.07;;
20623;SDS011;10471;42.736;23.346;2023-12-28T01:17:20;170.40;;;71.73;;
20623;SDS011;10471;42.736;23.346;2023-12-28T01:19:46;113.73;;;55.40;;
20623;SDS011;10471;42.736;23.346;2023-12-28T01:22:12;117.40;;;53.80;;
20623;SDS011;10471;42.736;23.346;2023-12-28T01:24:37;90.90;;;47.93;;
20623;SDS011;10471;42.736;23.346;2023-12-28T01:27:02;85.93;;;46.27;;
20623;SDS011;10471;42.736;23.346;2023-12-28T01:29:28;86.83;;;46.00;;
20623;SDS011;10471;42.736;23.346;2023-12-28T01:31:53;87.60;;;46.37;;
20623;SDS011;10471;42.736;23.346;2023-12-28T01:34:19;86.03;;;46.10;;
20623;SDS011;10471;42.736;23.346;2023-12-28T01:36:44;85.87;;;45.33;;
20623;SDS011;10471;42.736;23.346;2023-12-28T01:39:10;85.63;;;45.07;;
20623;SDS011;10471;42.736;23.346;2023-12-28T01:41:40;85.53;;;40.70;;
20623;SDS011;10471;42.736;23.346;2023-12-28T01:44:05;85.83;;;43.97;;
20623;SDS011;10471;42.736;23.346;2023-12-28T01:46:31;84.17;;;41.60;;
20623;SDS011;10471;42.736;23.346;2023-12-28T01:48:57;86.27;;;44.27;;
20623;SDS011;10471;42.736;23.346;2023-12-28T01:51:22;89.87;;;44.37;;
20623;SDS011;10471;42.736;23.346;2023-12-28T01:53:48;83.33;;;42.50;;
20623;SDS011;10471;42.736;23.346;2023-12-28T01:56:17;76.67;;;39.87;;
20623;SDS011;10471;42.736;23.346;2023-12-28T01:58:43;73.07;;;38.57;;
20623;SDS011;10471;42.736;23.346;2023-12-28T02:01:10;74.03;;;39.53;;
20623;SDS011;10471;42.736;23.346;2023-12-28T02:03:36;71.63;;;38.53;;
20623;SDS011;10471;42.736;23.346;2023-12-28T02:06:02;75.13;;;39.83;;
20623;SDS011;10471;42.736;23.346;2023-12-28T02:08:28;71.97;;;37.87;;
20623;SDS011;10471;42.736;23.346;2023-12-28T02:10:54;101.37;;;48.60;;
20623;SDS011;10471;42.736;23.346;2023-12-28T02:13:21;90.10;;;46.67;;
20623;SDS011;10471;42.736;23.346;2023-12-28T02:15:47;71.77;;;37.80;;
20623;SDS011;10471;42.736;23.346;2023-12-28T02:18:21;73.03;;;39.30;;
20623;SDS011;10471;42.736;23.346;2023-12-28T02:20:50;69.27;;;39.33;;
20623;SDS011;10471;42.736;23.346;2023-12-28T02:23:16;71.50;;;38.30;;
20623;SDS011;10471;42.736;23.346;2023-12-28T02:25:41;73.67;;;38.63;;
20623;SDS011;10471;42.736;23.346;2023-12-28T02:28:07;67.60;;;38.23;;
20623;SDS011;10471;42.736;23.346;2023-12-28T02:30:33;65.33;;;36.33;;
20623;SDS011;10471;42.736;23.346;2023-12-28T02:33:12;67.50;;;37.07;;
20623;SDS011;10471;42.736;23.346;2023-12-28T02:36:01;66.37;;;35.30;;
20623;SDS011;10471;42.736;23.346;2023-12-28T02:38:29;64.23;;;37.07;;
20623;SDS011;10471;42.736;23.346;2023-12-28T02:40:57;89.63;;;47.33;;
20623;SDS011;10471;42.736;23.346;2023-12-28T02:43:23;88.57;;;52.10;;
20623;SDS011;10471;42.736;23.346;2023-12-28T02:45:49;81.47;;;46.77;;
20623;SDS011;10471;42.736;23.346;2023-12-28T02:48:14;80.97;;;45.57;;
20623;SDS011;10471;42.736;23.346;2023-12-28T02:50:40;92.47;;;47.27;;
20623;SDS011;10471;42.736;23.346;2023-12-28T02:53:05;136.43;;;61.00;;
20623;SDS011;10471;42.736;23.346;2023-12-28T02:55:31;104.70;;;48.90;;
20623;SDS011;10471;42.736;23.346;2023-12-28T02:57:57;102.00;;;50.90;;
20623;SDS011;10471;42.736;23.346;2023-12-28T03:00:26;89.87;;;47.20;;
20623;SDS011;10471;42.736;23.346;2023-12-28T03:02:51;95.87;;;47.80;;
20623;SDS011;10471;42.736;23.346;2023-12-28T03:05:17;71.73;;;40.73;;
20623;SDS011;10471;42.736;23.346;2023-12-28T03:07:43;71.23;;;38.20;;
20623;SDS011;10471;42.736;23.346;2023-12-28T03:10:09;72.00;;;38.90;;
20623;SDS011;10471;42.736;23.346;2023-12-28T03:12:36;85.27;;;45.83;;
20623;SDS011;10471;42.736;23.346;2023-12-28T03:15:02;81.40;;;41.90;;
20623;SDS011;10471;42.736;23.346;2023-12-28T03:17:28;101.10;;;50.73;;
20623;SDS011;10471;42.736;23.346;2023-12-28T03:19:55;146.70;;;69.83;;
20623;SDS011;10471;42.736;23.346;2023-12-28T03:22:21;82.97;;;46.10;;
20623;SDS011;10471;42.736;23.346;2023-12-28T03:24:46;280.03;;;141.73;;
20623;SDS011;10471;42.736;23.346;2023-12-28T03:27:12;291.23;;;135.87;;
20623;SDS011;10471;42.736;23.346;2023-12-28T03:29:37;94.33;;;48.17;;
20623;SDS011;10471;42.736;23.346;2023-12-28T03:32:03;116.20;;;52.47;;
20623;SDS011;10471;42.736;23.346;2023-12-28T03:34:28;104.80;;;49.43;;
20623;SDS011;10471;42.736;23.346;2023-12-28T03:36:55;75.40;;;41.03;;
20623;SDS011;10471;42.736;23.346;2023-12-28T03:39:21;70.97;;;39.73;;
20623;SDS011;10471;42.736;23.346;2023-12-28T03:41:49;73.83;;;39.60;;
20623;SDS011;10471;42.736;23.346;2023-12-28T03:44:14;76.27;;;39.53;;
20623;SDS011;10471;42.736;23.346;2023-12-28T03:46:40;85.73;;;44.43;;
20623;SDS011;10471;42.736;23.346;2023-12-28T03:49:05;65.97;;;37.03;;
20623;SDS011;10471;42.736;23.346;2023-12-28T03:51:30;80.87;;;39.10;;
20623;SDS011;10471;42.736;23.346;2023-12-28T03:53:56;77.73;;;41.60;;
20623;SDS011;10471;42.736;23.346;2023-12-28T03:56:22;78.07;;;40.77;;
20623;SDS011;10471;42.736;23.346;2023-12-28T03:58:49;72.47;;;40.40;;
20623;SDS011;10471;42.736;23.346;2023-12-28T04:01:19;68.97;;;38.23;;
20623;SDS011;10471;42.736;23.346;2023-12-28T04:03:45;69.90;;;37.53;;
20623;SDS011;10471;42.736;23.346;2023-12-28T04:06:11;87.20;;;42.27;;
20623;SDS011;10471;42.736;23.346;2023-12-28T04:08:38;75.97;;;43.27;;
20623;SDS011;10471;42.736;23.346;2023-12-28T04:11:03;77.07;;;42.17;;
20623;SDS011;10471;42.736;23.346;2023-12-28T04:13:29;72.07;;;42.70;;
20623;SDS011;10471;42.736;23.346;2023-12-28T04:15:54;70.83;;;38.93;;
20623;SDS011;10471;42.736;23.346;2023-12-28T04:18:19;75.53;;;41.13;;
20623;SDS011;10471;42.736;23.346;2023-12-28T04:20:45;73.00;;;39.63;;
20623;SDS011;10471;42.736;23.346;2023-12-28T04:23:10;71.30;;;37.97;;
20623;SDS011;10471;42.736;23.346;2023-12-28T04:25:36;72.33;;;38.77;;
20623;SDS011;10471;42.736;23.346;2023-12-28T04:28:01;69.00;;;39.63;;
20623;SDS011;10471;42.736;23.346;2023-12-28T04:30:27;92.53;;;44.60;;
20623;SDS011;10471;42.736;23.346;2023-12-28T04:32:53;98.33;;;48.50;;
20623;SDS011;10471;42.736;23.346;2023-12-28T04:35:18;75.10;;;40.17;;
20623;SDS011;10471;42.736;23.346;2023-12-28T04:37:44;75.67;;;38.47;;
20623;SDS011;10471;42.736;23.346;2023-12-28T04:40:10;81.97;;;40.97;;
20623;SDS011;10471;42.736;23.346;2023-12-28T04:42:35;68.03;;;38.00;;
20623;SDS011;10471;42.736;23.346;2023-12-28T04:45:01;73.57;;;39.47;;
20623;SDS011;10471;42.736;23.346;2023-12-28T04:47:26;76.30;;;40.00;;
20623;SDS011;10471;42.736;23.346;2023-12-28T04:49:52;82.67;;;43.53;;
20623;SDS011;10471;42.736;23.346;2023-12-28T04:52:17;81.37;;;44.70;;
20623;SDS011;10471;42.736;23.346;2023-12-28T04:54:43;79.77;;;46.13;;
20623;SDS011;10471;42.736;23.346;2023-12-28T04:57:08;88.17;;;46.53;;
20623;SDS011;10471;42.736;23.346;2023-12-28T04:59:40;85.73;;;43.67;;
20623;SDS011;10471;42.736;23.346;2023-12-28T05:02:05;75.13;;;39.40;;
20623;SDS011;10471;42.736;23.346;2023-12-28T05:04:31;81.53;;;41.63;;
20623;SDS011;10471;42.736;23.346;2023-12-28T05:06:57;89.93;;;51.30;;
20623;SDS011;10471;42.736;23.346;2023-12-28T05:09:22;82.63;;;44.17;;
20623;SDS011;10471;42.736;23.346;2023-12-28T05:11:47;92.63;;;42.97;;
20623;SDS011;10471;42.736;23.346;2023-12-28T05:14:13;73.40;;;38.23;;
20623;SDS011;10471;42.736;23.346;2023-12-28T05:16:38;71.97;;;35.87;;
20623;SDS011;10471;42.736;23.346;2023-12-28T05:19:03;74.67;;;35.50;;
20623;SDS011;10471;42.736;23.346;2023-12-28T05:21:29;68.77;;;36.27;;
20623;SDS011;10471;42.736;23.346;2023-12-28T05:23:54;74.77;;;37.53;;
20623;SDS011;10471;42.736;23.346;2023-12-28T05:26:20;69.50;;;34.23;;
20623;SDS011;10471;42.736;23.346;2023-12-28T05:28:45;62.33;;;32.83;;
20623;SDS011;10471;42.736;23.346;2023-12-28T05:31:11;70.67;;;33.17;;
20623;SDS011;10471;42.736;23.346;2023-12-28T05:33:38;70.60;;;33.00;;
20623;SDS011;10471;42.736;23.346;2023-12-28T05:36:04;75.40;;;34.93;;
20623;SDS011;10471;42.736;23.346;2023-12-28T05:38:30;82.40;;;34.20;;
20623;SDS011;10471;42.736;23.346;2023-12-28T05:40:55;68.03;;;33.10;;
20623;SDS011;10471;42.736;23.346;2023-12-28T05:43:20;74.57;;;33.33;;
20623;SDS011;10471;42.736;23.346;2023-12-28T05:45:46;72.37;;;34.10;;
20623;SDS011;10471;42.736;23.346;2023-12-28T05:48:11;75.20;;;35.37;;
20623;SDS011;10471;42.736;23.346;2023-12-28T05:50:36;80.63;;;37.10;;
20623;SDS011;10471;42.736;23.346;2023-12-28T05:53:02;77.03;;;35.37;;
20623;SDS011;10471;42.736;23.346;2023-12-28T05:55:27;80.60;;;37.00;;
20623;SDS011;10471;42.736;23.346;2023-12-28T05:57:53;83.33;;;37.87;;
20623;SDS011;10471;42.736;23.346;2023-12-28T06:00:18;77.00;;;35.37;;
20623;SDS011;10471;42.736;23.346;2023-12-28T06:02:44;77.07;;;36.00;;
20623;SDS011;10471;42.736;23.346;2023-12-28T06:05:11;80.23;;;36.20;;
20623;SDS011;10471;42.736;23.346;2023-12-28T06:07:37;77.13;;;35.07;;
20623;SDS011;10471;42.736;23.346;2023-12-28T06:10:02;82.77;;;38.17;;
20623;SDS011;10471;42.736;23.346;2023-12-28T06:12:29;82.87;;;37.87;;
20623;SDS011;10471;42.736;23.346;2023-12-28T06:14:54;86.10;;;39.77;;
20623;SDS011;10471;42.736;23.346;2023-12-28T06:17:20;88.03;;;41.63;;
20623;SDS011;10471;42.736;23.346;2023-12-28T06:19:45;99.63;;;43.83;;
20623;SDS011;10471;42.736;23.346;2023-12-28T06:22:10;122.87;;;52.80;;
20623;SDS011;10471;42.736;23.346;2023-12-28T06:24:39;157.07;;;61.30;;
20623;SDS011;10471;42.736;23.346;2023-12-28T06:27:05;142.17;;;62.40;;
20623;SDS011;10471;42.736;23.346;2023-12-28T06:29:30;208.07;;;79.40;;
20623;SDS011;10471;42.736;23.346;2023-12-28T06:31:56;204.23;;;77.63;;
20623;SDS011;10471;42.736;23.346;2023-12-28T06:34:21;229.00;;;97.47;;
20623;SDS011;10471;42.736;23.346;2023-12-28T06:36:46;187.73;;;70.80;;
20623;SDS011;10471;42.736;23.346;2023-12-28T06:39:12;192.93;;;76.33;;
20623;SDS011;10471;42.736;23.346;2023-12-28T06:41:37;222.07;;;80.83;;
20623;SDS011;10471;42.736;23.346;2023-12-28T06:44:03;209.17;;;78.60;;
20623;SDS011;10471;42.736;23.346;2023-12-28T06:46:28;211.17;;;76.00;;
20623;SDS011;10471;42.736;23.346;2023-12-28T06:48:53;226.17;;;78.67;;
20623;SDS011;10471;42.736;23.346;2023-12-28T06:51:19;197.07;;;76.27;;
20623;SDS011;10471;42.736;23.346;2023-12-28T06:53:46;168.97;;;56.63;;
20623;SDS011;10471;42.736;23.346;2023-12-28T06:56:11;152.47;;;49.10;;
20623;SDS011;10471;42.736;23.346;2023-12-28T06:58:37;174.23;;;55.63;;
20623;SDS011;10471;42.736;23.346;2023-12-28T07:01:06;191.50;;;64.63;;
20623;SDS011;10471;42.736;23.346;2023-12-28T07:03:31;190.80;;;65.17;;
20623;SDS011;10471;42.736;23.346;2023-12-28T07:06:01;196.23;;;68.17;;
20623;SDS011;10471;42.736;23.346;2023-12-28T07:08:28;248.30;;;84.27;;
20623;SDS011;10471;42.736;23.346;2023-12-28T07:10:53;224.30;;;73.23;;
20623;SDS011;10471;42.736;23.346;2023-12-28T07:13:19;205.27;;;71.13;;
20623;SDS011;10471;42.736;23.346;2023-12-28T07:15:44;212.27;;;74.77;;
20623;SDS011;10471;42.736;23.346;2023-12-28T07:18:10;191.23;;;70.20;;
20623;SDS011;10471;42.736;23.346;2023-12-28T07:20:35;210.00;;;73.10;;
20623;SDS011;10471;42.736;23.346;2023-12-28T07:23:00;210.03;;;73.03;;
20623;SDS011;10471;42.736;23.346;2023-12-28T07:25:26;206.23;;;82.13;;
20623;SDS011;10471;42.736;23.346;2023-12-28T07:27:51;216.77;;;82.33;;
20623;SDS011;10471;42.736;23.346;2023-12-28T07:30:16;259.93;;;110.13;;
20623;SDS011;10471;42.736;23.346;2023-12-28T07:32:43;242.17;;;109.60;;
20623;SDS011;10471;42.736;23.346;2023-12-28T07:35:09;268.20;;;113.47;;
20623;SDS011;10471;42.736;23.346;2023-12-28T07:37:35;242.07;;;105.37;;
20623;SDS011;10471;42.736;23.346;2023-12-28T07:40:01;227.07;;;99.07;;
20623;SDS011;10471;42.736;23.346;2023-12-28T07:42:27;226.30;;;102.07;;
20623;SDS011;10471;42.736;23.346;2023-12-28T07:44:52;200.93;;;96.90;;
20623;SDS011;10471;42.736;23.346;2023-12-28T07:47:17;197.77;;;93.27;;
20623;SDS011;10471;42.736;23.346;2023-12-28T07:49:43;180.70;;;89.83;;
20623;SDS011;10471;42.736;23.346;2023-12-28T07:52:08;196.27;;;96.10;;
20623;SDS011;10471;42.736;23.346;2023-12-28T07:54:34;176.30;;;90.73;;
20623;SDS011;10471;42.736;23.346;2023-12-28T07:56:59;197.20;;;97.97;;
20623;SDS011;10471;42.736;23.346;2023-12-28T07:59:25;197.40;;;96.40;;
20623;SDS011;10471;42.736;23.346;2023-12-28T08:01:50;220.47;;;109.00;;
20623;SDS011;10471;42.736;23.346;2023-12-28T08:04:16;185.33;;;85.80;;
20623;SDS011;10471;42.736;23.346;2023-12-28T08:06:41;153.83;;;67.77;;
20623;SDS011;10471;42.736;23.346;2023-12-28T08:09:07;132.77;;;60.27;;
20623;SDS011;10471;42.736;23.346;2023-12-28T08:11:33;103.70;;;53.43;;
20623;SDS011;10471;42.736;23.346;2023-12-28T08:13:59;153.57;;;74.43;;
20623;SDS011;10471;42.736;23.346;2023-12-28T08:16:24;113.10;;;60.97;;
20623;SDS011;10471;42.736;23.346;2023-12-28T08:18:51;127.60;;;65.43;;
20623;SDS011;10471;42.736;23.346;2023-12-28T08:21:16;119.67;;;58.77;;
20623;SDS011;10471;42.736;23.346;2023-12-28T08:23:43;127.87;;;68.03;;
20623;SDS011;10471;42.736;23.346;2023-12-28T08:26:08;117.20;;;59.77;;
20623;SDS011;10471;42.736;23.346;2023-12-28T08:28:35;99.80;;;54.00;;
20623;SDS011;10471;42.736;23.346;2023-12-28T08:31:00;97.67;;;50.47;;
20623;SDS011;10471;42.736;23.346;2023-12-28T08:33:25;86.17;;;47.57;;
20623;SDS011;10471;42.736;23.346;2023-12-28T08:35:51;83.70;;;44.77;;
20623;SDS011;10471;42.736;23.346;2023-12-28T08:38:16;92.33;;;48.00;;
20623;SDS011;10471;42.736;23.346;2023-12-28T08:40:41;86.37;;;45.50;;
20623;SDS011;10471;42.736;23.346;2023-12-28T08:43:09;85.30;;;44.87;;
20623;SDS011;10471;42.736;23.346;2023-12-28T08:45:34;94.57;;;44.23;;
20623;SDS011;10471;42.736;23.346;2023-12-28T08:48:00;93.60;;;48.60;;
20623;SDS011;10471;42.736;23.346;2023-12-28T08:50:26;83.20;;;44.10;;
20623;SDS011;10471;42.736;23.346;2023-12-28T08:52:51;84.90;;;44.23;;
20623;SDS011;10471;42.736;23.346;2023-12-28T08:55:17;79.37;;;40.30;;
20623;SDS011;10471;42.736;23.346;2023-12-28T08:57:42;86.10;;;39.90;;
20623;SDS011;10471;42.736;23.346;2023-12-28T09:00:07;87.40;;;42.50;;
20623;SDS011;10471;42.736;23.346;2023-12-28T09:02:34;78.87;;;42.13;;
20623;SDS011;10471;42.736;23.346;2023-12-28T09:04:59;72.50;;;39.10;;
20623;SDS011;10471;42.736;23.346;2023-12-28T09:07:26;72.17;;;38.80;;
20623;SDS011;10471;42.736;23.346;2023-12-28T09:09:51;70.37;;;39.37;;
20623;SDS011;10471;42.736;23.346;2023-12-28T09:12:16;74.00;;;40.63;;
20623;SDS011;10471;42.736;23.346;2023-12-28T09:14:42;77.33;;;37.90;;
20623;SDS011;10471;42.736;23.346;2023-12-28T09:17:07;71.37;;;42.57;;
20623;SDS011;10471;42.736;23.346;2023-12-28T09:19:33;70.47;;;42.07;;
20623;SDS011;10471;42.736;23.346;2023-12-28T09:21:58;67.37;;;38.93;;
20623;SDS011;10471;42.736;23.346;2023-12-28T09:24:23;64.87;;;38.03;;
20623;SDS011;10471;42.736;23.346;2023-12-28T09:26:49;63.40;;;36.60;;
20623;SDS011;10471;42.736;23.346;2023-12-28T09:29:14;59.10;;;35.00;;
20623;SDS011;10471;42.736;23.346;2023-12-28T09:31:40;63.43;;;36.87;;
20623;SDS011;10471;42.736;23.346;2023-12-28T09:34:05;53.40;;;32.50;;
20623;SDS011;10471;42.736;23.346;2023-12-28T09:36:31;54.33;;;33.27;;
20623;SDS011;10471;42.736;23.346;2023-12-28T09:38:56;78.47;;;42.90;;
20623;SDS011;10471;42.736;23.346;2023-12-28T09:41:25;77.77;;;44.90;;
20623;SDS011;10471;42.736;23.346;2023-12-28T09:43:58;62.23;;;37.57;;
20623;SDS011;10471;42.736;23.346;2023-12-28T09:46:31;58.10;;;36.83;;
20623;SDS011;10471;42.736;23.346;2023-12-28T09:48:57;68.03;;;38.03;;
20623;SDS011;10471;42.736;23.346;2023-12-28T09:51:24;61.83;;;37.73;;
20623;SDS011;10471;42.736;23.346;2023-12-28T09:53:50;62.63;;;38.30;;
20623;SDS011;10471;42.736;23.346;2023-12-28T09:56:16;69.87;;;40.13;;
20623;SDS011;10471;42.736;23.346;2023-12-28T09:58:42;61.10;;;38.17;;
20623;SDS011;10471;42.736;23.346;2023-12-28T10:01:09;64.27;;;38.53;;
20623;SDS011;10471;42.736;23.346;2023-12-28T10:03:35;60.30;;;38.60;;
20623;SDS011;10471;42.736;23.346;2023-12-28T10:06:00;64.00;;;39.47;;
20623;SDS011;10471;42.736;23.346;2023-12-28T10:08:25;68.60;;;44.70;;
20623;SDS011;10471;42.736;23.346;2023-12-28T10:10:51;63.87;;;42.37;;
20623;SDS011;10471;42.736;23.346;2023-12-28T10:13:19;60.90;;;39.87;;
20623;SDS011;10471;42.736;23.346;2023-12-28T10:15:45;64.03;;;38.73;;
20623;SDS011;10471;42.736;23.346;2023-12-28T10:18:10;60.83;;;38.90;;
20623;SDS011;10471;42.736;23.346;2023-12-28T10:20:36;60.83;;;39.13;;
20623;SDS011;10471;42.736;23.346;2023-12-28T10:23:01;63.37;;;39.80;;
20623;SDS011;10471;42.736;23.346;2023-12-28T10:25:27;67.97;;;42.50;;
20623;SDS011;10471;42.736;23.346;2023-12-28T10:27:54;67.50;;;40.40;;
20623;SDS011;10471;42.736;23.346;2023-12-28T10:30:22;60.40;;;37.40;;
20623;SDS011;10471;42.736;23.346;2023-12-28T10:32:48;50.40;;;32.37;;
20623;SDS011;10471;42.736;23.346;2023-12-28T10:35:14;52.23;;;32.87;;
20623;SDS011;10471;42.736;23.346;2023-12-28T10:37:40;53.33;;;31.03;;
20623;SDS011;10471;42.736;23.346;2023-12-28T10:40:07;48.77;;;31.93;;
20623;SDS011;10471;42.736;23.346;2023-12-28T10:42:48;46.10;;;31.97;;
20623;SDS011;10471;42.736;23.346;2023-12-28T10:45:17;47.27;;;31.03;;
20623;SDS011;10471;42.736;23.346;2023-12-28T10:47:52;41.87;;;27.53;;
20623;SDS011;10471;42.736;23.346;2023-12-28T10:50:21;41.90;;;26.07;;
20623;SDS011;10471;42.736;23.346;2023-12-28T10:52:50;38.53;;;25.80;;
20623;SDS011;10471;42.736;23.346;2023-12-28T10:55:34;30.10;;;20.93;;
20623;SDS011;10471;42.736;23.346;2023-12-28T10:58:21;35.37;;;21.60;;
20623;SDS011;10471;42.736;23.346;2023-12-28T11:00:56;34.07;;;22.27;;
20623;SDS011;10471;42.736;23.346;2023-12-28T11:03:30;35.07;;;22.40;;
20623;SDS011;10471;42.736;23.346;2023-12-28T11:06:00;35.10;;;23.20;;
20623;SDS011;10471;42.736;23.346;2023-12-28T11:08:29;44.93;;;27.07;;
20623;SDS011;10471;42.736;23.346;2023-12-28T11:10:57;39.40;;;26.07;;
20623;SDS011;10471;42.736;23.346;2023-12-28T11:13:26;43.37;;;27.30;;
20623;SDS011;10471;42.736;23.346;2023-12-28T11:15:55;41.03;;;26.67;;
20623;SDS011;10471;42.736;23.346;2023-12-28T11:18:21;45.17;;;27.67;;
20623;SDS011;10471;42.736;23.346;2023-12-28T11:20:48;41.53;;;28.53;;
20623;SDS011;10471;42.736;23.346;2023-12-28T11:23:16;40.30;;;28.03;;
20623;SDS011;10471;42.736;23.346;2023-12-28T11:25:42;41.13;;;26.67;;
20623;SDS011;10471;42.736;23.346;2023-12-28T11:28:10;40.03;;;26.57;;
20623;SDS011;10471;42.736;23.346;2023-12-28T11:30:37;37.73;;;26.37;;
20623;SDS011;10471;42.736;23.346;2023-12-28T11:33:04;42.90;;;27.63;;
20623;SDS011;10471;42.736;23.346;2023-12-28T11:35:38;39.90;;;27.73;;
20623;SDS011;10471;42.736;23.346;2023-12-28T11:38:05;38.43;;;26.50;;
20623;SDS011;10471;42.736;23.346;2023-12-28T11:40:40;41.77;;;27.10;;
20623;SDS011;10471;42.736;23.346;2023-12-28T11:43:20;39.07;;;26.37;;
20623;SDS011;10471;42.736;23.346;2023-12-28T11:45:50;36.20;;;25.77;;
20623;SDS011;10471;42.736;23.346;2023-12-28T11:48:23;33.40;;;24.70;;
20623;SDS011;10471;42.736;23.346;2023-12-28T11:50:56;41.57;;;25.33;;
20623;SDS011;10471;42.736;23.346;2023-12-28T11:53:23;34.03;;;23.23;;
20623;SDS011;10471;42.736;23.346;2023-12-28T11:55:50;35.53;;;24.17;;
20623;SDS011;10471;42.736;23.346;2023-12-28T11:58:17;32.40;;;22.90;;
20623;SDS011;10471;42.736;23.346;2023-12-28T12:00:43;41.33;;;25.13;;
20623;SDS011;10471;42.736;23.346;2023-12-28T12:03:11;36.60;;;23.77;;
20623;SDS011;10471;42.736;23.346;2023-12-28T12:05:37;33.83;;;22.10;;
20623;SDS011;10471;42.736;23.346;2023-12-28T12:08:03;30.93;;;21.10;;
20623;SDS011;10471;42.736;23.346;2023-12-28T12:10:38;33.03;;;21.60;;
20623;SDS011;10471;42.736;23.346;2023-12-28T12:13:04;30.87;;;20.63;;
20623;SDS011;10471;42.736;23.346;2023-12-28T12:15:30;31.77;;;20.70;;
20623;SDS011;10471;42.736;23.346;2023-12-28T12:17:55;35.17;;;21.53;;
20623;SDS011;10471;42.736;23.346;2023-12-28T12:20:21;30.83;;;20.93;;
20623;SDS011;10471;42.736;23.346;2023-12-28T12:22:46;35.37;;;19.40;;
20623;SDS011;10471;42.736;23.346;2023-12-28T12:25:12;25.73;;;17.80;;
20623;SDS011;10471;42.736;23.346;2023-12-28T12:27:38;29.33;;;19.27;;
20623;SDS011;10471;42.736;23.346;2023-12-28T12:30:03;29.13;;;18.27;;
20623;SDS011;10471;42.736;23.346;2023-12-28T12:32:29;22.73;;;16.90;;
20623;SDS011;10471;42.736;23.346;2023-12-28T12:34:56;27.10;;;16.17;;
20623;SDS011;10471;42.736;23.346;2023-12-28T12:37:22;23.53;;;15.87;;
20623;SDS011;10471;42.736;23.346;2023-12-28T12:39:48;25.43;;;15.90;;
20623;SDS011;10471;42.736;23.346;2023-12-28T12:42:14;27.17;;;16.37;;
20623;SDS011;10471;42.736;23.346;2023-12-28T12:44:40;23.20;;;15.53;;
20623;SDS011;10471;42.736;23.346;2023-12-28T12:47:06;24.00;;;15.93;;
20623;SDS011;10471;42.736;23.346;2023-12-28T12:49:32;28.33;;;16.23;;
20623;SDS011;10471;42.736;23.346;2023-12-28T12:51:57;22.13;;;15.43;;
20623;SDS011;10471;42.736;23.346;2023-12-28T12:54:23;27.47;;;16.87;;
20623;SDS011;10471;42.736;23.346;2023-12-28T12:56:51;38.13;;;22.23;;
20623;SDS011;10471;42.736;23.346;2023-12-28T12:59:17;31.10;;;21.53;;
20623;SDS011;10471;42.736;23.346;2023-12-28T13:01:43;35.17;;;22.50;;
20623;SDS011;10471;42.736;23.346;2023-12-28T13:04:09;40.10;;;23.30;;
20623;SDS011;10471;42.736;23.346;2023-12-28T13:06:35;39.17;;;22.40;;
20623;SDS011;10471;42.736;23.346;2023-12-28T13:09:01;33.80;;;21.30;;
20623;SDS011;10471;42.736;23.346;2023-12-28T13:11:27;29.50;;;17.10;;
20623;SDS011;10471;42.736;23.346;2023-12-28T13:13:53;25.20;;;18.00;;
20623;SDS011;10471;42.736;23.346;2023-12-28T13:16:18;31.77;;;18.77;;
20623;SDS011;10471;42.736;23.346;2023-12-28T13:18:44;37.93;;;23.37;;
20623;SDS011;10471;42.736;23.346;2023-12-28T13:21:09;37.73;;;21.60;;
20623;SDS011;10471;42.736;23.346;2023-12-28T13:23:35;31.10;;;20.80;;
20623;SDS011;10471;42.736;23.346;2023-12-28T13:26:00;30.20;;;19.30;;
20623;SDS011;10471;42.736;23.346;2023-12-28T13:28:25;31.33;;;18.40;;
20623;SDS011;10471;42.736;23.346;2023-12-28T13:30:51;27.03;;;17.13;;
20623;SDS011;10471;42.736;23.346;2023-12-28T13:33:20;26.10;;;17.13;;
20623;SDS011;10471;42.736;23.346;2023-12-28T13:35:45;32.03;;;18.37;;
20623;SDS011;10471;42.736;23.346;2023-12-28T13:38:11;30.17;;;19.57;;
20623;SDS011;10471;42.736;23.346;2023-12-28T13:40:36;29.67;;;20.87;;
20623;SDS011;10471;42.736;23.346;2023-12-28T13:43:02;32.57;;;21.00;;
20623;SDS011;10471;42.736;23.346;2023-12-28T13:45:27;35.40;;;21.70;;
20623;SDS011;10471;42.736;23.346;2023-12-28T13:47:52;45.80;;;36.00;;
20623;SDS011;10471;42.736;23.346;2023-12-28T13:50:18;36.57;;;24.57;;
20623;SDS011;10471;42.736;23.346;2023-12-28T13:52:45;33.43;;;22.80;;
20623;SDS011;10471;42.736;23.346;2023-12-28T13:55:10;36.67;;;24.13;;
20623;SDS011;10471;42.736;23.346;2023-12-28T13:57:36;38.87;;;24.00;;
20623;SDS011;10471;42.736;23.346;2023-12-28T14:00:02;33.70;;;23.13;;
20623;SDS011;10471;42.736;23.346;2023-12-28T14:02:28;42.27;;;23.87;;